sensor_id;sensor_type;location;lat;lon;timestamp;temperature;humidity
23137;DHT22;11737;50.558;7.258;2022-12-16T00:01:38;-4.20;99.90
23137;DHT22;11737;50.558;7.258;2022-12-16T00:04:05;-4.30;99.90
23137;DHT22;11737;50.558;7.258;2022-12-16T00:06:33;-4.50;99.90
23137;DHT22;11737;50.558;7.258;2022-12-16T00:09:01;-4.50;99.90
23137;DHT22;11737;50.558;7.258;2022-12-16T00:11:29;-4.30;99.90
23137;DHT22;11737;50.558;7.258;2022-12-16T00:13:57;-4.30;99.90
23137;DHT22;11737;50.558;7.258;2022-12-16T00:16:25;-4.20;99.90
23137;DHT22;11737;50.558;7.258;2022-12-16T00:18:52;-4.20;99.90
23137;DHT22;11737;50.558;7.258;2022-12-16T00:21:20;-4.40;99.90
23137;DHT22;11737;50.558;7.258;2022-12-16T00:23:48;-4.60;99.90
23137;DHT22;11737;50.558;7.258;2022-12-16T00:26:16;-4.70;99.90
23137;DHT22;11737;50.558;7.258;2022-12-16T00:28:43;-4.60;99.90
23137;DHT22;11737;50.558;7.258;2022-12-16T00:31:11;-4.60;99.90
23137;DHT22;11737;50.558;7.258;2022-12-16T00:33:38;-4.50;99.90
23137;DHT22;11737;50.558;7.258;2022-12-16T00:36:07;-4.70;99.90
23137;DHT22;11737;50.558;7.258;2022-12-16T00:38:34;-4.70;99.90
23137;DHT22;11737;50.558;7.258;2022-12-16T00:41:02;-4.60;99.90
23137;DHT22;11737;50.558;7.258;2022-12-16T00:43:29;-4.70;99.90
23137;DHT22;11737;50.558;7.258;2022-12-16T00:45:57;-4.70;99.90
23137;DHT22;11737;50.558;7.258;2022-12-16T00:48:24;-4.90;99.90
23137;DHT22;11737;50.558;7.258;2022-12-16T00:50:53;-4.90;99.90
23137;DHT22;11737;50.558;7.258;2022-12-16T00:53:23;-5.10;99.90
23137;DHT22;11737;50.558;7.258;2022-12-16T00:56:00;-5.10;99.90
23137;DHT22;11737;50.558;7.258;2022-12-16T00:58:21;-5.20;99.90
23137;DHT22;11737;50.558;7.258;2022-12-16T01:00:50;-5.10;99.90
23137;DHT22;11737;50.558;7.258;2022-12-16T01:03:17;-5.00;99.90
23137;DHT22;11737;50.558;7.258;2022-12-16T01:05:45;-4.90;99.90
23137;DHT22;11737;50.558;7.258;2022-12-16T01:08:12;-4.80;99.90
23137;DHT22;11737;50.558;7.258;2022-12-16T01:10:40;-4.90;99.90
23137;DHT22;11737;50.558;7.258;2022-12-16T01:13:07;-4.80;99.90
23137;DHT22;11737;50.558;7.258;2022-12-16T01:15:36;-4.90;99.90
23137;DHT22;11737;50.558;7.258;2022-12-16T01:18:04;-5.00;99.90
23137;DHT22;11737;50.558;7.258;2022-12-16T01:20:32;-5.10;99.90
23137;DHT22;11737;50.558;7.258;2022-12-16T01:23:00;-5.10;99.90
23137;DHT22;11737;50.558;7.258;2022-12-16T01:25:27;-5.10;99.90
23137;DHT22;11737;50.558;7.258;2022-12-16T01:27:55;-4.90;99.90
23137;DHT22;11737;50.558;7.258;2022-12-16T01:30:22;-5.00;99.90
23137;DHT22;11737;50.558;7.258;2022-12-16T01:32:50;-5.10;99.90
23137;DHT22;11737;50.558;7.258;2022-12-16T01:35:17;-5.10;99.90
23137;DHT22;11737;50.558;7.258;2022-12-16T01:37:45;-5.10;99.90
23137;DHT22;11737;50.558;7.258;2022-12-16T01:40:21;-5.20;99.90
23137;DHT22;11737;50.558;7.258;2022-12-16T01:42:49;-5.20;99.90
23137;DHT22;11737;50.558;7.258;2022-12-16T01:48:29;-5.00;99.90
23137;DHT22;11737;50.558;7.258;2022-12-16T01:51:20;-4.90;99.90
23137;DHT22;11737;50.558;7.258;2022-12-16T01:53:48;-5.00;99.90
23137;DHT22;11737;50.558;7.258;2022-12-16T01:56:17;-5.10;99.90
23137;DHT22;11737;50.558;7.258;2022-12-16T01:58:46;-5.10;99.90
23137;DHT22;11737;50.558;7.258;2022-12-16T02:01:15;-5.20;99.90
23137;DHT22;11737;50.558;7.258;2022-12-16T02:03:43;-5.30;99.90
23137;DHT22;11737;50.558;7.258;2022-12-16T02:06:11;-5.40;99.90
23137;DHT22;11737;50.558;7.258;2022-12-16T02:08:38;-5.40;99.90
23137;DHT22;11737;50.558;7.258;2022-12-16T02:14:01;-5.40;99.90
23137;DHT22;11737;50.558;7.258;2022-12-16T02:22:41;-5.20;99.90
23137;DHT22;11737;50.558;7.258;2022-12-16T02:28:07;-5.30;99.90
23137;DHT22;11737;50.558;7.258;2022-12-16T02:30:50;-5.40;99.90
23137;DHT22;11737;50.558;7.258;2022-12-16T02:39:07;-5.70;99.90
23137;DHT22;11737;50.558;7.258;2022-12-16T02:44:25;-5.60;99.90
23137;DHT22;11737;50.558;7.258;2022-12-16T02:46:54;-5.50;99.90
23137;DHT22;11737;50.558;7.258;2022-12-16T02:51:53;-5.50;99.90
23137;DHT22;11737;50.558;7.258;2022-12-16T02:54:21;-5.40;99.90
23137;DHT22;11737;50.558;7.258;2022-12-16T02:57:00;-5.50;99.90
23137;DHT22;11737;50.558;7.258;2022-12-16T02:59:59;-5.60;99.90
23137;DHT22;11737;50.558;7.258;2022-12-16T03:11:07;-5.90;99.90
23137;DHT22;11737;50.558;7.258;2022-12-16T03:13:37;-6.00;99.90
23137;DHT22;11737;50.558;7.258;2022-12-16T03:16:07;-5.90;99.90
23137;DHT22;11737;50.558;7.258;2022-12-16T03:18:41;-5.90;99.90
23137;DHT22;11737;50.558;7.258;2022-12-16T03:21:09;-5.90;99.90
23137;DHT22;11737;50.558;7.258;2022-12-16T03:23:56;-5.90;99.90
23137;DHT22;11737;50.558;7.258;2022-12-16T03:26:33;-6.00;99.90
23137;DHT22;11737;50.558;7.258;2022-12-16T03:29:12;-6.00;99.90
23137;DHT22;11737;50.558;7.258;2022-12-16T03:31:40;-6.10;99.90
23137;DHT22;11737;50.558;7.258;2022-12-16T03:37:03;-6.00;99.90
23137;DHT22;11737;50.558;7.258;2022-12-16T03:39:34;-5.90;99.90
23137;DHT22;11737;50.558;7.258;2022-12-16T03:42:02;-6.00;99.90
23137;DHT22;11737;50.558;7.258;2022-12-16T03:44:30;-6.10;99.90
23137;DHT22;11737;50.558;7.258;2022-12-16T03:46:58;-6.10;99.90
23137;DHT22;11737;50.558;7.258;2022-12-16T03:49:26;-6.00;99.90
23137;DHT22;11737;50.558;7.258;2022-12-16T03:51:54;-6.10;99.90
23137;DHT22;11737;50.558;7.258;2022-12-16T03:54:21;-6.10;99.90
23137;DHT22;11737;50.558;7.258;2022-12-16T03:56:49;-6.00;99.90
23137;DHT22;11737;50.558;7.258;2022-12-16T03:59:17;-6.10;99.90
23137;DHT22;11737;50.558;7.258;2022-12-16T04:01:45;-6.10;99.90
23137;DHT22;11737;50.558;7.258;2022-12-16T04:04:12;-6.30;99.90
23137;DHT22;11737;50.558;7.258;2022-12-16T04:06:40;-6.30;99.90
23137;DHT22;11737;50.558;7.258;2022-12-16T04:09:07;-6.20;99.90
23137;DHT22;11737;50.558;7.258;2022-12-16T04:11:35;-6.30;99.90
23137;DHT22;11737;50.558;7.258;2022-12-16T04:14:21;-6.30;99.90
23137;DHT22;11737;50.558;7.258;2022-12-16T04:17:08;-6.40;99.90
23137;DHT22;11737;50.558;7.258;2022-12-16T04:19:55;-6.40;99.90
23137;DHT22;11737;50.558;7.258;2022-12-16T04:22:42;-6.30;99.90
23137;DHT22;11737;50.558;7.258;2022-12-16T04:25:34;-6.10;99.90
23137;DHT22;11737;50.558;7.258;2022-12-16T04:28:02;-6.20;99.90
23137;DHT22;11737;50.558;7.258;2022-12-16T04:30:30;-6.20;99.90
23137;DHT22;11737;50.558;7.258;2022-12-16T04:33:05;-6.20;99.90
23137;DHT22;11737;50.558;7.258;2022-12-16T04:35:51;-6.10;99.90
23137;DHT22;11737;50.558;7.258;2022-12-16T04:38:36;-6.00;99.90
23137;DHT22;11737;50.558;7.258;2022-12-16T04:41:21;-6.10;99.90
23137;DHT22;11737;50.558;7.258;2022-12-16T04:44:07;-6.10;99.90
23137;DHT22;11737;50.558;7.258;2022-12-16T04:46:53;-6.20;99.90
23137;DHT22;11737;50.558;7.258;2022-12-16T04:49:38;-6.40;99.90
23137;DHT22;11737;50.558;7.258;2022-12-16T04:52:24;-6.40;99.90
23137;DHT22;11737;50.558;7.258;2022-12-16T04:55:10;-6.20;99.90
23137;DHT22;11737;50.558;7.258;2022-12-16T04:57:59;-6.10;99.90
23137;DHT22;11737;50.558;7.258;2022-12-16T05:00:45;-6.10;99.90
23137;DHT22;11737;50.558;7.258;2022-12-16T05:03:31;-6.10;99.90
23137;DHT22;11737;50.558;7.258;2022-12-16T05:06:17;-6.20;99.90
23137;DHT22;11737;50.558;7.258;2022-12-16T05:09:03;-6.30;99.90
23137;DHT22;11737;50.558;7.258;2022-12-16T05:11:49;-6.50;99.90
23137;DHT22;11737;50.558;7.258;2022-12-16T05:14:35;-6.60;99.90
23137;DHT22;11737;50.558;7.258;2022-12-16T05:20:26;-6.90;99.90
23137;DHT22;11737;50.558;7.258;2022-12-16T05:23:12;-7.10;99.90
23137;DHT22;11737;50.558;7.258;2022-12-16T05:25:57;-7.30;99.90
23137;DHT22;11737;50.558;7.258;2022-12-16T05:28:43;-7.40;99.90
23137;DHT22;11737;50.558;7.258;2022-12-16T05:31:29;-7.50;99.90
23137;DHT22;11737;50.558;7.258;2022-12-16T05:34:14;-7.60;99.90
23137;DHT22;11737;50.558;7.258;2022-12-16T05:36:59;-7.60;99.90
23137;DHT22;11737;50.558;7.258;2022-12-16T05:39:45;-7.60;99.90
23137;DHT22;11737;50.558;7.258;2022-12-16T05:42:31;-7.60;99.90
23137;DHT22;11737;50.558;7.258;2022-12-16T05:45:16;-7.60;99.90
23137;DHT22;11737;50.558;7.258;2022-12-16T05:48:02;-7.60;99.90
23137;DHT22;11737;50.558;7.258;2022-12-16T05:50:47;-7.50;99.90
23137;DHT22;11737;50.558;7.258;2022-12-16T05:53:33;-7.40;99.90
23137;DHT22;11737;50.558;7.258;2022-12-16T05:56:19;-7.30;99.90
23137;DHT22;11737;50.558;7.258;2022-12-16T05:59:03;-7.30;99.90
23137;DHT22;11737;50.558;7.258;2022-12-16T06:01:48;-7.20;99.90
23137;DHT22;11737;50.558;7.258;2022-12-16T06:04:33;-7.20;99.90
23137;DHT22;11737;50.558;7.258;2022-12-16T06:07:19;-7.30;99.90
23137;DHT22;11737;50.558;7.258;2022-12-16T06:10:05;-7.20;99.90
23137;DHT22;11737;50.558;7.258;2022-12-16T06:12:50;-7.10;99.90
23137;DHT22;11737;50.558;7.258;2022-12-16T06:15:36;-7.00;99.90
23137;DHT22;11737;50.558;7.258;2022-12-16T06:18:21;-7.10;99.90
23137;DHT22;11737;50.558;7.258;2022-12-16T06:21:07;-7.10;99.90
23137;DHT22;11737;50.558;7.258;2022-12-16T06:23:52;-7.10;99.90
23137;DHT22;11737;50.558;7.258;2022-12-16T06:26:38;-7.10;99.90
23137;DHT22;11737;50.558;7.258;2022-12-16T06:29:23;-7.00;99.90
23137;DHT22;11737;50.558;7.258;2022-12-16T06:32:01;-7.00;99.90
23137;DHT22;11737;50.558;7.258;2022-12-16T06:34:51;-7.00;99.90
23137;DHT22;11737;50.558;7.258;2022-12-16T06:37:37;-7.00;99.90
23137;DHT22;11737;50.558;7.258;2022-12-16T06:40:23;-7.00;99.90
23137;DHT22;11737;50.558;7.258;2022-12-16T06:43:08;-7.00;99.90
23137;DHT22;11737;50.558;7.258;2022-12-16T06:45:54;-7.00;99.90
23137;DHT22;11737;50.558;7.258;2022-12-16T06:48:39;-6.90;99.90
23137;DHT22;11737;50.558;7.258;2022-12-16T06:51:25;-6.50;99.90
23137;DHT22;11737;50.558;7.258;2022-12-16T06:54:10;-6.40;99.90
23137;DHT22;11737;50.558;7.258;2022-12-16T06:56:56;-6.60;99.90
23137;DHT22;11737;50.558;7.258;2022-12-16T06:59:41;-6.70;99.90
23137;DHT22;11737;50.558;7.258;2022-12-16T07:02:27;-6.70;99.90
23137;DHT22;11737;50.558;7.258;2022-12-16T07:05:13;-6.90;99.90
23137;DHT22;11737;50.558;7.258;2022-12-16T07:07:58;-6.90;99.90
23137;DHT22;11737;50.558;7.258;2022-12-16T07:10:44;-7.00;99.90
23137;DHT22;11737;50.558;7.258;2022-12-16T07:13:29;-7.00;99.90
23137;DHT22;11737;50.558;7.258;2022-12-16T07:16:15;-7.00;99.90
23137;DHT22;11737;50.558;7.258;2022-12-16T07:19:00;-6.90;99.90
23137;DHT22;11737;50.558;7.258;2022-12-16T07:21:46;-6.90;99.90
23137;DHT22;11737;50.558;7.258;2022-12-16T07:24:31;-6.90;99.90
23137;DHT22;11737;50.558;7.258;2022-12-16T07:27:16;-6.90;99.90
23137;DHT22;11737;50.558;7.258;2022-12-16T07:30:02;-6.90;99.90
23137;DHT22;11737;50.558;7.258;2022-12-16T07:32:49;-6.80;99.90
23137;DHT22;11737;50.558;7.258;2022-12-16T07:35:34;-6.80;99.90
23137;DHT22;11737;50.558;7.258;2022-12-16T07:38:20;-6.80;99.90
23137;DHT22;11737;50.558;7.258;2022-12-16T07:41:05;-6.80;99.90
23137;DHT22;11737;50.558;7.258;2022-12-16T07:43:51;-6.80;99.90
23137;DHT22;11737;50.558;7.258;2022-12-16T07:46:36;-6.80;99.90
23137;DHT22;11737;50.558;7.258;2022-12-16T07:49:21;-6.80;99.90
23137;DHT22;11737;50.558;7.258;2022-12-16T07:52:08;-6.90;99.90
23137;DHT22;11737;50.558;7.258;2022-12-16T07:54:53;-7.00;99.90
23137;DHT22;11737;50.558;7.258;2022-12-16T07:57:39;-7.00;99.90
23137;DHT22;11737;50.558;7.258;2022-12-16T08:00:25;-7.00;99.90
23137;DHT22;11737;50.558;7.258;2022-12-16T08:03:10;-7.10;99.90
23137;DHT22;11737;50.558;7.258;2022-12-16T08:05:55;-7.10;99.90
23137;DHT22;11737;50.558;7.258;2022-12-16T08:08:41;-7.20;99.90
23137;DHT22;11737;50.558;7.258;2022-12-16T08:11:26;-7.20;99.90
23137;DHT22;11737;50.558;7.258;2022-12-16T08:14:12;-7.20;99.90
23137;DHT22;11737;50.558;7.258;2022-12-16T08:16:58;-7.20;99.90
23137;DHT22;11737;50.558;7.258;2022-12-16T08:19:43;-7.30;99.90
23137;DHT22;11737;50.558;7.258;2022-12-16T08:22:28;-7.30;99.90
23137;DHT22;11737;50.558;7.258;2022-12-16T08:25:13;-7.30;99.90
23137;DHT22;11737;50.558;7.258;2022-12-16T08:27:59;-7.20;99.90
23137;DHT22;11737;50.558;7.258;2022-12-16T08:30:49;-7.10;99.90
23137;DHT22;11737;50.558;7.258;2022-12-16T08:33:35;-7.00;99.90
23137;DHT22;11737;50.558;7.258;2022-12-16T08:36:21;-7.00;99.90
23137;DHT22;11737;50.558;7.258;2022-12-16T08:39:07;-6.90;99.90
23137;DHT22;11737;50.558;7.258;2022-12-16T08:41:52;-6.90;99.90
23137;DHT22;11737;50.558;7.258;2022-12-16T08:44:37;-6.80;99.90
23137;DHT22;11737;50.558;7.258;2022-12-16T08:47:09;-6.80;99.90
23137;DHT22;11737;50.558;7.258;2022-12-16T08:49:54;-6.70;99.90
23137;DHT22;11737;50.558;7.258;2022-12-16T08:52:40;-6.60;99.90
23137;DHT22;11737;50.558;7.258;2022-12-16T08:55:26;-6.60;99.90
23137;DHT22;11737;50.558;7.258;2022-12-16T08:58:11;-6.50;99.90
23137;DHT22;11737;50.558;7.258;2022-12-16T09:00:57;-6.40;99.90
23137;DHT22;11737;50.558;7.258;2022-12-16T09:03:42;-6.30;99.90
23137;DHT22;11737;50.558;7.258;2022-12-16T09:06:28;-6.10;99.90
23137;DHT22;11737;50.558;7.258;2022-12-16T09:09:13;-6.00;99.90
23137;DHT22;11737;50.558;7.258;2022-12-16T09:11:59;-6.00;99.90
23137;DHT22;11737;50.558;7.258;2022-12-16T09:14:44;-5.90;99.90
23137;DHT22;11737;50.558;7.258;2022-12-16T09:17:30;-5.90;99.90
23137;DHT22;11737;50.558;7.258;2022-12-16T09:20:16;-5.70;99.90
23137;DHT22;11737;50.558;7.258;2022-12-16T09:23:05;-5.60;99.90
23137;DHT22;11737;50.558;7.258;2022-12-16T09:25:50;-5.50;99.90
23137;DHT22;11737;50.558;7.258;2022-12-16T09:28:35;-5.30;99.90
23137;DHT22;11737;50.558;7.258;2022-12-16T09:31:21;-5.20;99.90
23137;DHT22;11737;50.558;7.258;2022-12-16T09:34:06;-5.10;99.90
23137;DHT22;11737;50.558;7.258;2022-12-16T09:36:52;-5.00;99.90
23137;DHT22;11737;50.558;7.258;2022-12-16T09:39:37;-5.00;99.90
23137;DHT22;11737;50.558;7.258;2022-12-16T09:45:43;-4.90;99.90
23137;DHT22;11737;50.558;7.258;2022-12-16T09:48:37;-4.80;99.90
23137;DHT22;11737;50.558;7.258;2022-12-16T09:51:18;-4.70;99.90
23137;DHT22;11737;50.558;7.258;2022-12-16T09:54:05;-4.60;99.90
23137;DHT22;11737;50.558;7.258;2022-12-16T09:56:51;-4.60;99.90
23137;DHT22;11737;50.558;7.258;2022-12-16T10:02:49;-4.40;99.90
23137;DHT22;11737;50.558;7.258;2022-12-16T10:09:02;-4.30;99.90
23137;DHT22;11737;50.558;7.258;2022-12-16T10:12:02;-4.20;99.90
23137;DHT22;11737;50.558;7.258;2022-12-16T10:14:50;-4.10;99.90
23137;DHT22;11737;50.558;7.258;2022-12-16T10:17:36;-4.00;99.90
23137;DHT22;11737;50.558;7.258;2022-12-16T10:20:39;-3.90;99.90
23137;DHT22;11737;50.558;7.258;2022-12-16T10:23:47;-3.70;99.90
23137;DHT22;11737;50.558;7.258;2022-12-16T10:26:44;-3.60;99.90
23137;DHT22;11737;50.558;7.258;2022-12-16T10:29:26;-3.50;99.90
23137;DHT22;11737;50.558;7.258;2022-12-16T10:35:35;-3.30;99.90
23137;DHT22;11737;50.558;7.258;2022-12-16T10:38:38;-3.20;99.90
23137;DHT22;11737;50.558;7.258;2022-12-16T10:41:11;-3.10;99.90
23137;DHT22;11737;50.558;7.258;2022-12-16T10:44:01;-3.00;99.90
23137;DHT22;11737;50.558;7.258;2022-12-16T10:46:49;-3.00;99.90
23137;DHT22;11737;50.558;7.258;2022-12-16T10:49:35;-2.80;99.90
23137;DHT22;11737;50.558;7.258;2022-12-16T10:52:20;-2.80;99.90
23137;DHT22;11737;50.558;7.258;2022-12-16T10:55:30;-2.80;99.90
23137;DHT22;11737;50.558;7.258;2022-12-16T10:58:25;-2.70;99.90
23137;DHT22;11737;50.558;7.258;2022-12-16T11:01:24;-2.60;99.90
23137;DHT22;11737;50.558;7.258;2022-12-16T11:04:36;-2.60;99.90
23137;DHT22;11737;50.558;7.258;2022-12-16T11:07:24;-2.50;99.90
23137;DHT22;11737;50.558;7.258;2022-12-16T11:13:24;-2.30;99.90
23137;DHT22;11737;50.558;7.258;2022-12-16T11:16:21;-2.30;99.90
23137;DHT22;11737;50.558;7.258;2022-12-16T11:19:25;-2.20;99.90
23137;DHT22;11737;50.558;7.258;2022-12-16T11:22:20;-2.10;99.90
23137;DHT22;11737;50.558;7.258;2022-12-16T11:28:17;-2.00;99.90
23137;DHT22;11737;50.558;7.258;2022-12-16T11:31:22;-1.90;99.90
23137;DHT22;11737;50.558;7.258;2022-12-16T11:34:08;-1.90;99.90
23137;DHT22;11737;50.558;7.258;2022-12-16T11:36:54;-1.80;99.90
23137;DHT22;11737;50.558;7.258;2022-12-16T11:39:40;-1.70;99.90
23137;DHT22;11737;50.558;7.258;2022-12-16T11:42:27;-1.70;99.90
23137;DHT22;11737;50.558;7.258;2022-12-16T11:45:20;-1.60;99.90
23137;DHT22;11737;50.558;7.258;2022-12-16T11:51:09;-1.50;99.90
23137;DHT22;11737;50.558;7.258;2022-12-16T11:54:16;-1.40;99.90
23137;DHT22;11737;50.558;7.258;2022-12-16T11:57:03;-1.30;99.90
23137;DHT22;11737;50.558;7.258;2022-12-16T11:59:59;-1.30;99.90
23137;DHT22;11737;50.558;7.258;2022-12-16T12:02:51;-1.30;99.90
23137;DHT22;11737;50.558;7.258;2022-12-16T12:09:16;-1.20;99.90
23137;DHT22;11737;50.558;7.258;2022-12-16T12:24:24;-0.90;99.90
23137;DHT22;11737;50.558;7.258;2022-12-16T12:30:30;-0.80;99.90
23137;DHT22;11737;50.558;7.258;2022-12-16T12:33:36;-0.80;99.90
23137;DHT22;11737;50.558;7.258;2022-12-16T12:36:40;-0.70;99.90
23137;DHT22;11737;50.558;7.258;2022-12-16T12:39:35;-0.70;99.90
23137;DHT22;11737;50.558;7.258;2022-12-16T12:42:34;-0.60;99.90
23137;DHT22;11737;50.558;7.258;2022-12-16T12:51:44;-0.60;99.90
23137;DHT22;11737;50.558;7.258;2022-12-16T12:54:57;-0.50;99.90
23137;DHT22;11737;50.558;7.258;2022-12-16T12:57:38;-0.50;99.90
23137;DHT22;11737;50.558;7.258;2022-12-16T13:00:26;-0.50;99.90
23137;DHT22;11737;50.558;7.258;2022-12-16T13:06:23;-0.40;99.90
23137;DHT22;11737;50.558;7.258;2022-12-16T13:15:37;-0.20;99.90
23137;DHT22;11737;50.558;7.258;2022-12-16T13:27:15;-0.10;99.90
23137;DHT22;11737;50.558;7.258;2022-12-16T13:33:00;-0.10;99.90
23137;DHT22;11737;50.558;7.258;2022-12-16T13:35:57;0.00;99.90
23137;DHT22;11737;50.558;7.258;2022-12-16T13:38:52;-0.10;99.90
23137;DHT22;11737;50.558;7.258;2022-12-16T13:41:58;-0.10;99.90
23137;DHT22;11737;50.558;7.258;2022-12-16T13:50:41;0.00;99.90
23137;DHT22;11737;50.558;7.258;2022-12-16T13:56:43;0.00;99.90
23137;DHT22;11737;50.558;7.258;2022-12-16T13:59:31;0.00;99.90
23137;DHT22;11737;50.558;7.258;2022-12-16T14:02:29;-0.10;99.90
23137;DHT22;11737;50.558;7.258;2022-12-16T14:05:24;-0.10;99.90
23137;DHT22;11737;50.558;7.258;2022-12-16T14:08:12;-0.10;99.90
23137;DHT22;11737;50.558;7.258;2022-12-16T14:11:00;-0.20;99.90
23137;DHT22;11737;50.558;7.258;2022-12-16T14:17:00;-0.20;99.90
23137;DHT22;11737;50.558;7.258;2022-12-16T14:20:00;-0.30;99.90
23137;DHT22;11737;50.558;7.258;2022-12-16T14:22:58;-0.30;99.90
23137;DHT22;11737;50.558;7.258;2022-12-16T14:25:44;-0.30;99.90
23137;DHT22;11737;50.558;7.258;2022-12-16T14:31:43;-0.40;99.90
23137;DHT22;11737;50.558;7.258;2022-12-16T14:34:31;-0.40;99.90
23137;DHT22;11737;50.558;7.258;2022-12-16T14:37:27;-0.50;99.90
23137;DHT22;11737;50.558;7.258;2022-12-16T14:40:30;-0.50;99.90
23137;DHT22;11737;50.558;7.258;2022-12-16T14:46:05;-0.70;99.90
23137;DHT22;11737;50.558;7.258;2022-12-16T14:48:51;-0.80;99.90
23137;DHT22;11737;50.558;7.258;2022-12-16T14:51:37;-0.90;99.90
23137;DHT22;11737;50.558;7.258;2022-12-16T14:54:38;-1.00;99.90
23137;DHT22;11737;50.558;7.258;2022-12-16T14:57:28;-1.10;99.90
23137;DHT22;11737;50.558;7.258;2022-12-16T15:03:38;-1.30;99.90
23137;DHT22;11737;50.558;7.258;2022-12-16T15:06:47;-1.40;99.90
23137;DHT22;11737;50.558;7.258;2022-12-16T15:09:24;-1.50;99.90
23137;DHT22;11737;50.558;7.258;2022-12-16T15:12:00;-1.60;99.90
23137;DHT22;11737;50.558;7.258;2022-12-16T15:14:46;-1.70;99.90
23137;DHT22;11737;50.558;7.258;2022-12-16T15:17:41;-1.90;99.90
23137;DHT22;11737;50.558;7.258;2022-12-16T15:20:28;-2.00;99.90
23137;DHT22;11737;50.558;7.258;2022-12-16T15:23:21;-2.10;99.90
23137;DHT22;11737;50.558;7.258;2022-12-16T15:26:08;-2.20;99.90
23137;DHT22;11737;50.558;7.258;2022-12-16T15:28:55;-2.30;99.90
23137;DHT22;11737;50.558;7.258;2022-12-16T15:31:40;-2.40;99.90
23137;DHT22;11737;50.558;7.258;2022-12-16T15:34:30;-2.50;99.90
23137;DHT22;11737;50.558;7.258;2022-12-16T15:40:32;-2.60;99.90
23137;DHT22;11737;50.558;7.258;2022-12-16T15:43:28;-2.70;99.90
23137;DHT22;11737;50.558;7.258;2022-12-16T15:46:28;-2.70;99.90
23137;DHT22;11737;50.558;7.258;2022-12-16T15:49:22;-2.80;99.90
23137;DHT22;11737;50.558;7.258;2022-12-16T15:52:33;-2.80;99.90
23137;DHT22;11737;50.558;7.258;2022-12-16T15:55:32;-2.80;99.90
23137;DHT22;11737;50.558;7.258;2022-12-16T16:01:10;-2.90;99.90
23137;DHT22;11737;50.558;7.258;2022-12-16T16:03:57;-3.00;99.90
23137;DHT22;11737;50.558;7.258;2022-12-16T16:06:49;-3.10;99.90
23137;DHT22;11737;50.558;7.258;2022-12-16T16:09:37;-3.10;99.90
23137;DHT22;11737;50.558;7.258;2022-12-16T16:15:30;-3.20;99.90
23137;DHT22;11737;50.558;7.258;2022-12-16T16:18:15;-3.30;99.90
23137;DHT22;11737;50.558;7.258;2022-12-16T16:21:01;-3.40;99.90
23137;DHT22;11737;50.558;7.258;2022-12-16T16:23:46;-3.40;99.90
23137;DHT22;11737;50.558;7.258;2022-12-16T16:26:32;-3.40;99.90
23137;DHT22;11737;50.558;7.258;2022-12-16T16:29:17;-3.40;99.90
23137;DHT22;11737;50.558;7.258;2022-12-16T16:32:03;-3.40;99.90
23137;DHT22;11737;50.558;7.258;2022-12-16T16:34:48;-3.50;99.90
23137;DHT22;11737;50.558;7.258;2022-12-16T16:37:34;-3.50;99.90
23137;DHT22;11737;50.558;7.258;2022-12-16T16:40:30;-3.60;99.90
23137;DHT22;11737;50.558;7.258;2022-12-16T16:43:17;-3.60;99.90
23137;DHT22;11737;50.558;7.258;2022-12-16T16:46:11;-3.70;99.90
23137;DHT22;11737;50.558;7.258;2022-12-16T16:48:51;-3.60;99.90
23137;DHT22;11737;50.558;7.258;2022-12-16T16:51:37;-3.60;99.90
23137;DHT22;11737;50.558;7.258;2022-12-16T16:54:22;-3.60;99.90
23137;DHT22;11737;50.558;7.258;2022-12-16T16:57:09;-3.40;99.90
23137;DHT22;11737;50.558;7.258;2022-12-16T16:59:54;-3.40;99.90
23137;DHT22;11737;50.558;7.258;2022-12-16T17:02:40;-3.30;99.90
23137;DHT22;11737;50.558;7.258;2022-12-16T17:05:25;-3.20;99.90
23137;DHT22;11737;50.558;7.258;2022-12-16T17:08:11;-3.20;99.90
23137;DHT22;11737;50.558;7.258;2022-12-16T17:10:56;-3.20;99.90
23137;DHT22;11737;50.558;7.258;2022-12-16T17:13:42;-3.20;99.90
23137;DHT22;11737;50.558;7.258;2022-12-16T17:16:27;-3.10;99.90
23137;DHT22;11737;50.558;7.258;2022-12-16T17:19:13;-3.00;99.90
23137;DHT22;11737;50.558;7.258;2022-12-16T17:21:58;-2.90;99.90
23137;DHT22;11737;50.558;7.258;2022-12-16T17:24:44;-2.90;99.90
23137;DHT22;11737;50.558;7.258;2022-12-16T17:27:29;-2.90;99.90
23137;DHT22;11737;50.558;7.258;2022-12-16T17:30:19;-2.80;99.90
23137;DHT22;11737;50.558;7.258;2022-12-16T17:33:05;-2.30;99.90
23137;DHT22;11737;50.558;7.258;2022-12-16T17:35:50;-1.70;99.90
23137;DHT22;11737;50.558;7.258;2022-12-16T17:41:46;-0.80;99.90
23137;DHT22;11737;50.558;7.258;2022-12-16T17:44:31;-0.30;99.90
23137;DHT22;11737;50.558;7.258;2022-12-16T17:47:17;0.00;99.90
23137;DHT22;11737;50.558;7.258;2022-12-16T17:50:03;0.30;99.90
23137;DHT22;11737;50.558;7.258;2022-12-16T17:52:54;0.20;99.90
23137;DHT22;11737;50.558;7.258;2022-12-16T17:55:40;0.00;99.90
23137;DHT22;11737;50.558;7.258;2022-12-16T17:58:31;-0.20;99.90
23137;DHT22;11737;50.558;7.258;2022-12-16T18:01:17;-0.20;99.90
23137;DHT22;11737;50.558;7.258;2022-12-16T18:04:02;-0.20;99.90
23137;DHT22;11737;50.558;7.258;2022-12-16T18:06:48;-0.20;99.90
23137;DHT22;11737;50.558;7.258;2022-12-16T18:09:33;-0.10;99.90
23137;DHT22;11737;50.558;7.258;2022-12-16T18:12:20;-0.10;99.90
23137;DHT22;11737;50.558;7.258;2022-12-16T18:15:07;-0.20;99.90
23137;DHT22;11737;50.558;7.258;2022-12-16T18:17:52;-0.30;99.90
23137;DHT22;11737;50.558;7.258;2022-12-16T18:20:38;-0.50;99.90
23137;DHT22;11737;50.558;7.258;2022-12-16T18:23:23;-0.50;99.90
23137;DHT22;11737;50.558;7.258;2022-12-16T18:26:09;-0.60;99.90
23137;DHT22;11737;50.558;7.258;2022-12-16T18:28:55;-0.50;99.90
23137;DHT22;11737;50.558;7.258;2022-12-16T18:31:41;-0.40;99.90
23137;DHT22;11737;50.558;7.258;2022-12-16T18:34:26;-0.60;99.90
23137;DHT22;11737;50.558;7.258;2022-12-16T18:37:12;-0.60;99.90
23137;DHT22;11737;50.558;7.258;2022-12-16T18:39:57;-0.70;99.90
23137;DHT22;11737;50.558;7.258;2022-12-16T18:42:43;-0.60;99.90
23137;DHT22;11737;50.558;7.258;2022-12-16T18:45:28;-0.60;99.90
23137;DHT22;11737;50.558;7.258;2022-12-16T18:48:14;-0.70;99.90
23137;DHT22;11737;50.558;7.258;2022-12-16T18:50:59;-0.70;99.90
23137;DHT22;11737;50.558;7.258;2022-12-16T18:53:48;-0.70;99.90
23137;DHT22;11737;50.558;7.258;2022-12-16T18:56:33;-0.70;99.90
23137;DHT22;11737;50.558;7.258;2022-12-16T18:59:18;-0.70;99.90
23137;DHT22;11737;50.558;7.258;2022-12-16T19:02:04;-0.70;99.90
23137;DHT22;11737;50.558;7.258;2022-12-16T19:04:49;-0.70;99.90
23137;DHT22;11737;50.558;7.258;2022-12-16T19:07:35;-0.80;99.90
23137;DHT22;11737;50.558;7.258;2022-12-16T19:10:21;-0.80;99.90
23137;DHT22;11737;50.558;7.258;2022-12-16T19:13:10;-0.80;99.90
23137;DHT22;11737;50.558;7.258;2022-12-16T19:15:55;-0.90;99.90
23137;DHT22;11737;50.558;7.258;2022-12-16T19:18:41;-0.90;99.90
23137;DHT22;11737;50.558;7.258;2022-12-16T19:21:26;-0.80;99.90
23137;DHT22;11737;50.558;7.258;2022-12-16T19:24:12;-0.80;99.90
23137;DHT22;11737;50.558;7.258;2022-12-16T19:26:58;-0.80;99.90
23137;DHT22;11737;50.558;7.258;2022-12-16T19:29:43;-0.80;99.90
23137;DHT22;11737;50.558;7.258;2022-12-16T19:32:28;-0.80;99.90
23137;DHT22;11737;50.558;7.258;2022-12-16T19:35:14;-0.90;99.90
23137;DHT22;11737;50.558;7.258;2022-12-16T19:38:00;-0.80;99.90